createdAt,value
2023-04-02T00:00:24.802Z,96444.47
2023-04-02T00:02:32.705Z,96443.03
2023-04-02T00:04:38.058Z,96445.47
2023-04-02T00:06:45.044Z,96450.97
2023-04-02T00:08:49.559Z,96445.69
2023-04-02T00:10:54.349Z,96443.25
2023-04-02T00:13:02.983Z,96451.78
2023-04-02T00:15:06.449Z,96452.22
2023-04-02T00:17:09.259Z,96448.97
2023-04-02T00:19:19.216Z,96451.03
2023-04-02T00:21:25.785Z,96447.53
2023-04-02T00:23:29.504Z,96443.84
2023-04-02T00:25:42.707Z,96444.06
2023-04-02T00:27:45.625Z,96446.50
2023-04-02T00:29:49.593Z,96440.38
2023-04-02T00:31:53.912Z,96430.59
2023-04-02T00:33:57.035Z,96443.66
2023-04-02T00:36:00.313Z,96444.66
2023-04-02T00:38:03.324Z,96449.94
2023-04-02T00:40:10.958Z,96453.63
2023-04-02T00:42:18.054Z,96452.22
2023-04-02T00:44:22.057Z,96440.00
2023-04-02T00:46:32.335Z,96451.03
2023-04-02T00:48:42.469Z,96453.06
2023-04-02T00:50:46.014Z,96448.97
2023-04-02T00:52:52.203Z,96456.31
2023-04-02T00:55:04.232Z,96446.97
2023-04-02T00:57:17.868Z,96450.22
2023-04-02T00:59:26.007Z,96448.59
2023-04-02T01:01:34.199Z,96443.06
2023-04-02T01:03:38.106Z,96447.97
2023-04-02T01:05:42.520Z,96448.41
2023-04-02T01:07:59.764Z,96448.59
2023-04-02T01:10:30.361Z,96447.78
2023-04-02T01:12:49.365Z,96457.56
2023-04-02T01:15:03.321Z,96454.09
2023-04-02T01:17:18.485Z,96462.47
2023-04-02T01:19:49.055Z,96462.84
2023-04-02T01:21:58.776Z,96458.16
2023-04-02T01:24:05.135Z,96459.19
2023-04-02T01:26:16.807Z,96460.81
2023-04-02T01:28:27.200Z,96464.84
2023-04-02T01:30:31.630Z,96458.75
2023-04-02T01:32:35.747Z,96462.63
2023-04-02T01:34:39.684Z,96459.97
2023-04-02T01:36:53.032Z,96448.78
2023-04-02T01:39:05.151Z,96464.03
2023-04-02T01:41:14.713Z,96453.47
2023-04-02T01:43:25.088Z,96458.75
2023-04-02T01:45:28.774Z,96464.47
2023-04-02T01:47:33.178Z,96457.72
2023-04-02T01:49:36.033Z,96461.41
2023-04-02T01:51:42.929Z,96461.41
2023-04-02T01:53:45.810Z,96458.75
2023-04-02T01:55:50.659Z,96461.41
2023-04-02T01:57:55.382Z,96457.72
2023-04-02T02:00:00.266Z,96456.72
2023-04-02T02:02:05.379Z,96462.81
2023-04-02T02:04:13.740Z,96465.47
2023-04-02T02:06:19.184Z,96466.47
2023-04-02T02:08:31.230Z,96475.66
2023-04-02T02:10:36.242Z,96477.50
2023-04-02T02:12:39.268Z,96481.16
2023-04-02T02:14:48.042Z,96475.88
2023-04-02T02:16:53.402Z,96477.91
2023-04-02T02:18:58.881Z,96475.66
2023-04-02T02:21:08.826Z,96472.19
2023-04-02T02:23:13.617Z,96477.50
2023-04-02T02:25:20.047Z,96481.97
2023-04-02T02:27:44.906Z,96486.69
2023-04-02T02:29:51.844Z,96494.00
2023-04-02T02:31:56.729Z,96488.13
2023-04-02T02:34:02.598Z,96499.72
2023-04-02T02:36:15.067Z,96498.72
2023-04-02T02:38:30.340Z,96494.81
2023-04-02T02:40:39.881Z,96500.34
2023-04-02T02:42:49.061Z,96499.31
2023-04-02T02:44:54.914Z,96495.84
2023-04-02T02:47:01.762Z,96494.81
2023-04-02T02:49:06.077Z,96488.13
2023-04-02T02:51:19.515Z,96489.31
2023-04-02T02:53:24.104Z,96488.31
2023-04-02T02:55:32.645Z,96488.50
2023-04-02T02:57:40.898Z,96490.94
2023-04-02T02:59:44.266Z,96493.00
2023-04-02T03:01:48.430Z,96503.59
2023-04-02T03:03:54.383Z,96501.34
2023-04-02T03:06:01.980Z,96495.22
2023-04-02T03:08:11.011Z,96496.25
2023-04-02T03:10:19.155Z,96499.91
2023-04-02T03:12:36.096Z,96490.94
2023-04-02T03:14:44.698Z,96498.69
2023-04-02T03:16:51.587Z,96505.41
2023-04-02T03:18:59.102Z,96510.72
2023-04-02T03:21:09.360Z,96516.22
2023-04-02T03:23:20.426Z,96512.97
2023-04-02T03:25:30.666Z,96505.22
2023-04-02T03:27:36.163Z,96499.53
2023-04-02T03:29:42.510Z,96497.09
2023-04-02T03:31:49.586Z,96508.31
2023-04-02T03:33:54.214Z,96510.72
2023-04-02T03:36:02.528Z,96511.75
2023-04-02T03:38:08.854Z,96510.31
2023-04-02T03:40:19.723Z,96512.16
2023-04-02T03:42:25.144Z,96513.19
2023-04-02T03:44:34.696Z,96517.84
2023-04-02T03:46:41.967Z,96510.94
2023-04-02T03:48:48.677Z,96510.53
2023-04-02T03:50:57.362Z,96516.66
2023-04-02T03:53:00.702Z,96512.78
2023-04-02T03:55:10.596Z,96523.16
2023-04-02T03:57:23.770Z,96516.63
2023-04-02T03:59:34.698Z,96519.06
2023-04-02T04:01:44.527Z,96521.09
2023-04-02T04:03:50.982Z,96521.53
2023-04-02T04:05:58.266Z,96518.66
2023-04-02T04:08:04.582Z,96521.09
2023-04-02T04:10:10.518Z,96521.31
2023-04-02T04:12:24.684Z,96523.75
2023-04-02T04:14:30.478Z,96520.91
2023-04-02T04:16:41.308Z,96522.53
2023-04-02T04:18:51.807Z,96523.34
2023-04-02T04:20:58.348Z,96523.53
2023-04-02T04:23:11.739Z,96532.50
2023-04-02T04:25:23.240Z,96523.16
2023-04-02T04:27:33.817Z,96526.59
2023-04-02T04:29:45.396Z,96521.91
2023-04-02T04:31:50.651Z,96520.69
2023-04-02T04:34:03.022Z,96524.19
2023-04-02T04:36:07.818Z,96527.22
2023-04-02T04:38:15.824Z,96527.22
2023-04-02T04:40:23.845Z,96526.63
2023-04-02T04:42:32.966Z,96523.16
2023-04-02T04:44:45.734Z,96531.47
2023-04-02T04:46:56.241Z,96531.47
2023-04-02T04:49:04.082Z,96537.81
2023-04-02T04:51:16.456Z,96539.03
2023-04-02T04:53:23.004Z,96544.72
2023-04-02T04:55:29.774Z,96545.53
2023-04-02T04:57:38.344Z,96547.59
2023-04-02T04:59:45.493Z,96548.19
2023-04-02T05:01:54.872Z,96552.25
2023-04-02T05:04:04.803Z,96542.47
2023-04-02T05:06:12.695Z,96545.94
2023-04-02T05:08:20.963Z,96548.19
2023-04-02T05:10:32.772Z,96551.22
2023-04-02T05:12:41.339Z,96543.09
2023-04-02T05:14:51.675Z,96554.69
2023-04-02T05:16:59.869Z,96553.88
2023-04-02T05:19:08.784Z,96547.56
2023-04-02T05:21:20.760Z,96551.03
2023-04-02T05:23:28.239Z,96552.03
2023-04-02T05:25:32.945Z,96551.22
2023-04-02T05:27:45.345Z,96553.66
2023-04-02T05:29:54.524Z,96556.94
2023-04-02T05:32:03.454Z,96561.84
2023-04-02T05:34:06.700Z,96557.78
2023-04-02T05:36:12.500Z,96559.78
2023-04-02T05:38:21.877Z,96568.56
2023-04-02T05:40:30.796Z,96572.19
2023-04-02T05:42:38.608Z,96564.25
2023-04-02T05:44:56.572Z,96570.38
2023-04-02T05:47:03.358Z,96579.34
2023-04-02T05:49:12.929Z,96576.69
2023-04-02T05:51:19.791Z,96576.69
2023-04-02T05:53:26.461Z,96568.75
2023-04-02T05:55:37.437Z,96578.53
2023-04-02T05:58:01.193Z,96569.97
2023-04-02T06:00:17.558Z,96571.59
2023-04-02T06:02:26.134Z,96574.66
2023-04-02T06:04:35.574Z,96577.94
2023-04-02T06:06:50.531Z,96585.06
2023-04-02T06:09:00.140Z,96584.03
2023-04-02T06:11:07.465Z,96583.44
2023-04-02T06:13:16.014Z,96588.50
2023-04-02T06:15:21.329Z,96583.44
2023-04-02T06:17:24.464Z,96584.63
2023-04-02T06:19:30.315Z,96583.19
2023-04-02T06:21:33.194Z,96590.34
2023-04-02T06:23:41.159Z,96589.91
2023-04-02T06:25:49.095Z,96590.31
2023-04-02T06:27:53.708Z,96590.13
2023-04-02T06:30:01.976Z,96594.44
2023-04-02T06:32:07.286Z,96595.66
2023-04-02T06:34:17.001Z,96600.53
2023-04-02T06:36:21.125Z,96603.78
2023-04-02T06:38:28.161Z,96606.44
2023-04-02T06:40:41.262Z,96600.13
2023-04-02T06:42:46.856Z,96603.19
2023-04-02T06:44:50.771Z,96603.59
2023-04-02T06:46:58.874Z,96610.09
2023-04-02T06:49:13.126Z,96609.06
2023-04-02T06:51:21.422Z,96615.81
2023-04-02T06:53:27.378Z,96618.25
2023-04-02T06:55:34.992Z,96630.06
2023-04-02T06:57:38.015Z,96625.38
2023-04-02T06:59:41.137Z,96625.38
2023-04-02T07:01:48.999Z,96630.28
2023-04-02T07:03:53.367Z,96626.81
2023-04-02T07:05:57.066Z,96623.16
2023-04-02T07:07:59.968Z,96624.97
2023-04-02T07:10:02.725Z,96632.13
2023-04-02T07:12:12.555Z,96632.28
2023-04-02T07:14:15.462Z,96635.56
2023-04-02T07:16:21.731Z,96633.53
2023-04-02T07:18:28.259Z,96634.34
2023-04-02T07:20:37.402Z,96629.03
2023-04-02T07:22:40.604Z,96637.81
2023-04-02T07:24:43.448Z,96641.06
2023-04-02T07:26:48.021Z,96639.44
2023-04-02T07:28:50.990Z,96651.88
2023-04-02T07:30:53.846Z,96652.47
2023-04-02T07:32:56.574Z,96652.69
2023-04-02T07:34:59.305Z,96653.50
2023-04-02T07:37:03.871Z,96651.44
2023-04-02T07:39:07.228Z,96655.94
2023-04-02T07:41:10.284Z,96663.47
2023-04-02T07:43:13.091Z,96656.53
2023-04-02T07:45:16.046Z,96661.25
2023-04-02T07:47:18.864Z,96667.97
2023-04-02T07:49:22.123Z,96668.78
2023-04-02T07:51:27.208Z,96675.06
2023-04-02T07:53:34.245Z,96669.34
2023-04-02T07:55:37.238Z,96669.78
2023-04-02T07:57:42.311Z,96670.97
2023-04-02T07:59:46.446Z,96677.09
2023-04-02T08:01:49.296Z,96677.69
2023-04-02T08:03:54.289Z,96673.59
2023-04-02T08:05:59.312Z,96681.16
2023-04-02T08:08:02.141Z,96681.16
2023-04-02T08:10:07.373Z,96688.25
2023-04-02T08:12:13.083Z,96693.38
2023-04-02T08:14:16.072Z,96693.38
2023-04-02T08:16:19.104Z,96685.59
2023-04-02T08:18:23.546Z,96686.25
2023-04-02T08:20:26.502Z,96692.97
2023-04-02T08:22:29.629Z,96692.75
2023-04-02T08:24:32.335Z,96692.16
2023-04-02T08:26:37.427Z,96691.13
2023-04-02T08:28:40.375Z,96691.34
2023-04-02T08:30:43.621Z,96692.75
2023-04-02T08:32:46.829Z,96688.25
2023-04-02T08:34:49.680Z,96692.16
2023-04-02T08:36:52.608Z,96692.75
2023-04-02T08:38:55.581Z,96693.97
2023-04-02T08:41:02.428Z,96691.34
2023-04-02T08:43:37.463Z,96692.09
2023-04-02T08:45:50.704Z,96695.34
2023-04-02T08:47:57.439Z,96689.63
2023-04-02T08:50:03.986Z,96699.03
2023-04-02T08:52:06.912Z,96706.16
2023-04-02T08:54:19.858Z,96703.47
2023-04-02T08:56:30.109Z,96705.53
2023-04-02T08:58:42.915Z,96709.75
2023-04-02T09:00:48.715Z,96706.28
2023-04-02T09:02:57.161Z,96710.94
2023-04-02T09:05:04.692Z,96713.78
2023-04-02T09:07:07.889Z,96718.50
2023-04-02T09:09:12.924Z,96711.31
2023-04-02T09:11:23.597Z,96715.59
2023-04-02T09:13:29.540Z,96721.34
2023-04-02T09:15:36.842Z,96721.50
2023-04-02T09:17:53.182Z,96730.25
2023-04-02T09:19:59.935Z,96722.91
2023-04-02T09:22:11.265Z,96732.50
2023-04-02T09:24:14.126Z,96729.84
2023-04-02T09:26:22.763Z,96731.69
2023-04-02T09:28:27.172Z,96731.88
2023-04-02T09:30:42.778Z,96735.56
2023-04-02T09:32:51.069Z,96737.22
2023-04-02T09:35:15.003Z,96737.88
2023-04-02T09:37:25.358Z,96741.56
2023-04-02T09:39:28.116Z,96748.69
2023-04-02T09:41:34.116Z,96747.69
2023-04-02T09:43:39.494Z,96745.84
2023-04-02T09:45:45.233Z,96751.75
2023-04-02T09:47:49.017Z,96743.78
2023-04-02T09:49:52.858Z,96747.47
2023-04-02T09:52:17.567Z,96750.72
2023-04-02T09:54:22.448Z,96752.34
2023-04-02T09:56:26.543Z,96755.59
2023-04-02T09:58:29.382Z,96751.91
2023-04-02T10:00:41.622Z,96757.84
2023-04-02T10:02:47.542Z,96760.28
2023-04-02T10:04:50.955Z,96764.94
2023-04-02T10:06:58.218Z,96768.63
2023-04-02T10:09:22.518Z,96772.03
2023-04-02T10:11:36.460Z,96777.13
2023-04-02T10:13:53.744Z,96768.13
2023-04-02T10:16:03.032Z,96778.34
2023-04-02T10:18:16.391Z,96768.75
2023-04-02T10:20:23.176Z,96775.06
2023-04-02T10:22:29.409Z,96776.09
2023-04-02T10:24:32.710Z,96782.03
2023-04-02T10:26:47.522Z,96778.97
2023-04-02T10:29:06.755Z,96779.78
2023-04-02T10:31:17.348Z,96785.91
2023-04-02T10:33:28.570Z,96780.59
2023-04-02T10:35:43.249Z,96782.44
2023-04-02T10:38:22.195Z,96785.75
2023-04-02T10:40:29.786Z,96783.31
2023-04-02T10:42:37.665Z,96795.56
2023-04-02T10:44:55.037Z,96791.06
2023-04-02T10:47:09.188Z,96790.25
2023-04-02T10:49:25.232Z,96794.75
2023-04-02T10:51:35.958Z,96797.25
2023-04-02T10:53:46.702Z,96798.28
2023-04-02T10:55:53.513Z,96805.22
2023-04-02T10:57:59.940Z,96800.13
2023-04-02T11:00:16.490Z,96801.75
2023-04-02T11:02:32.396Z,96799.09
2023-04-02T11:04:43.064Z,96803.38
2023-04-02T11:06:50.108Z,96807.44
2023-04-02T11:08:58.237Z,96801.31
2023-04-02T11:11:05.369Z,96802.56
2023-04-02T11:13:16.359Z,96808.69
2023-04-02T11:15:21.080Z,96801.53
2023-04-02T11:17:25.528Z,96800.50
2023-04-02T11:19:29.393Z,96805.44
2023-04-02T11:21:57.213Z,96812.75
2023-04-02T11:24:04.869Z,96806.78
2023-04-02T11:26:47.747Z,96809.06
2023-04-02T11:28:50.768Z,96807.44
2023-04-02T11:30:54.453Z,96817.41
2023-04-02T11:33:41.366Z,96821.69
2023-04-02T11:35:46.187Z,96815.56
2023-04-02T11:37:50.439Z,96817.03
2023-04-02T11:39:56.713Z,96825.38
2023-04-02T11:42:05.819Z,96822.94
2023-04-02T11:44:24.062Z,96820.50
2023-04-02T11:46:40.889Z,96828.66
2023-04-02T11:48:44.488Z,96831.50
2023-04-02T11:50:48.000Z,96821.31
2023-04-02T11:52:54.481Z,96825.00
2023-04-02T11:55:00.909Z,96837.47
2023-04-02T11:57:18.074Z,96827.88
2023-04-02T11:59:27.431Z,96841.97
2023-04-02T12:01:57.946Z,96837.25
2023-04-02T12:04:25.051Z,96843.00
2023-04-02T12:06:39.804Z,96845.25
2023-04-02T12:08:58.070Z,96836.88
2023-04-02T12:11:02.376Z,96846.88
2023-04-02T12:13:05.173Z,96847.31
2023-04-02T12:15:29.247Z,96839.78
2023-04-02T12:17:34.822Z,96848.34
2023-04-02T12:19:37.897Z,96856.47
2023-04-02T12:21:47.720Z,96860.16
2023-04-02T12:23:55.549Z,96859.72
2023-04-02T12:25:59.980Z,96856.88
2023-04-02T12:28:09.250Z,96857.47
2023-04-02T12:30:15.592Z,96856.25
2023-04-02T12:32:25.391Z,96853.16
2023-04-02T12:34:30.726Z,96855.63
2023-04-02T12:36:34.436Z,96864.59
2023-04-02T12:38:45.843Z,96864.59
2023-04-02T12:40:58.510Z,96862.13
2023-04-02T12:43:01.302Z,96866.41
2023-04-02T12:45:07.643Z,96863.56
2023-04-02T12:47:14.310Z,96867.44
2023-04-02T12:49:26.518Z,96861.09
2023-04-02T12:51:30.063Z,96859.66
2023-04-02T12:53:38.913Z,96864.56
2023-04-02T12:55:48.468Z,96852.31
2023-04-02T12:57:57.078Z,96858.25
2023-04-02T13:00:01.027Z,96862.94
2023-04-02T13:02:16.948Z,96862.13
2023-04-02T13:04:21.984Z,96864.34
2023-04-02T13:06:28.324Z,96862.50
2023-04-02T13:08:43.136Z,96869.03
2023-04-02T13:10:46.648Z,96865.75
2023-04-02T13:12:49.752Z,96868.19
2023-04-02T13:14:55.913Z,96870.63
2023-04-02T13:16:58.725Z,96865.31
2023-04-02T13:19:25.492Z,96865.91
2023-04-02T13:21:32.187Z,96868.97
2023-04-02T13:23:37.615Z,96868.75
2023-04-02T13:25:40.423Z,96859.97
2023-04-02T13:27:43.299Z,96858.94
2023-04-02T13:29:46.314Z,96857.31
2023-04-02T13:31:51.161Z,96856.50
2023-04-02T13:33:53.918Z,96857.94
2023-04-02T13:35:56.725Z,96857.94
2023-04-02T13:38:02.774Z,96859.59
2023-04-02T13:40:08.551Z,96862.03
2023-04-02T13:42:14.773Z,96861.00
2023-04-02T13:44:23.699Z,96866.91
2023-04-02T13:46:28.667Z,96857.47
2023-04-02T13:48:32.860Z,96862.81
2023-04-02T13:50:37.445Z,96860.34
2023-04-02T13:52:42.758Z,96857.47
2023-04-02T13:54:50.724Z,96863.59
2023-04-02T13:56:53.581Z,96859.91
2023-04-02T13:58:56.833Z,96859.09
2023-04-02T14:00:59.622Z,96865.59
2023-04-02T14:03:09.377Z,96860.06
2023-04-02T14:05:28.704Z,96868.25
2023-04-02T14:07:45.966Z,96860.50
2023-04-02T14:10:11.858Z,96855.41
2023-04-02T14:12:22.165Z,96859.91
2023-04-02T14:14:39.416Z,96859.53
2023-04-02T14:16:54.759Z,96861.56
2023-04-02T14:19:12.093Z,96863.41
2023-04-02T14:21:26.529Z,96863.63
2023-04-02T14:23:46.719Z,96867.72
2023-04-02T14:25:58.538Z,96870.59
2023-04-02T14:28:09.198Z,96868.53
2023-04-02T14:30:19.360Z,96871.03
2023-04-02T14:32:27.269Z,96880.22
2023-04-02T14:34:38.320Z,96875.94
2023-04-02T14:36:56.388Z,96876.38
2023-04-02T14:39:07.362Z,96877.63
2023-04-02T14:41:14.867Z,96886.59
2023-04-02T14:43:23.593Z,96878.84
2023-04-02T14:45:39.939Z,96882.94
2023-04-02T14:47:47.328Z,96876.16
2023-04-02T14:49:54.687Z,96880.44
2023-04-02T14:52:04.509Z,96875.78
2023-04-02T14:54:13.505Z,96886.41
2023-04-02T14:56:18.738Z,96882.94
2023-04-02T14:58:27.192Z,96879.66
2023-04-02T15:00:36.804Z,96884.56
2023-04-02T15:02:45.999Z,96887.44
2023-04-02T15:04:55.502Z,96892.94
2023-04-02T15:07:08.860Z,96889.47
2023-04-02T15:09:16.618Z,96892.75
2023-04-02T15:11:25.105Z,96887.44
2023-04-02T15:13:37.396Z,96899.69
2023-04-02T15:15:46.209Z,96889.06
2023-04-02T15:17:49.115Z,96898.06
2023-04-02T15:19:59.793Z,96888.69
2023-04-02T15:22:32.994Z,96898.91
2023-04-02T15:24:46.083Z,96897.25
2023-04-02T15:26:59.406Z,96901.75
2023-04-02T15:29:15.843Z,96893.63
2023-04-02T15:31:29.791Z,96897.47
2023-04-02T15:33:42.721Z,96896.66
2023-04-02T15:35:52.405Z,96889.50
2023-04-02T15:38:02.543Z,96896.25
2023-04-02T15:40:21.440Z,96899.72
2023-04-02T15:42:28.829Z,96898.09
2023-04-02T15:44:31.842Z,96900.94
2023-04-02T15:46:50.423Z,96894.00
2023-04-02T15:49:11.102Z,96891.16
2023-04-02T15:51:24.834Z,96896.28
2023-04-02T15:53:45.901Z,96897.72
2023-04-02T15:55:55.821Z,96901.84
2023-04-02T15:58:22.822Z,96899.56
2023-04-02T16:00:27.963Z,96901.41
2023-04-02T16:02:38.612Z,96905.31
2023-04-02T16:04:55.168Z,96905.50
2023-04-02T16:07:10.277Z,96898.78
2023-04-02T16:09:23.357Z,96902.47
2023-04-02T16:11:27.410Z,96908.59
2023-04-02T16:13:32.789Z,96909.19
2023-04-02T16:15:39.585Z,96914.28
2023-04-02T16:17:46.920Z,96906.31
2023-04-02T16:19:53.790Z,96911.44
2023-04-02T16:22:02.840Z,96920.81
2023-04-02T16:24:10.874Z,96915.50
2023-04-02T16:26:44.851Z,96917.16
2023-04-02T16:28:59.755Z,96928.78
2023-04-02T16:31:10.159Z,96930.00
2023-04-02T16:33:22.809Z,96934.50
2023-04-02T16:37:43.898Z,96935.75
2023-04-02T16:39:52.085Z,96936.56
2023-04-02T16:42:06.838Z,96941.25
2023-04-02T16:44:24.331Z,96949.44
2023-04-02T16:46:39.872Z,96946.78
2023-04-02T16:48:50.737Z,96950.47
2023-04-02T16:51:03.131Z,96953.13
2023-04-02T16:53:19.019Z,96950.47
2023-04-02T16:55:35.615Z,96954.31
2023-04-02T16:57:49.087Z,96954.53
2023-04-02T17:00:01.998Z,96957.78
2023-04-02T17:02:22.202Z,96954.53
2023-04-02T17:04:47.069Z,96966.97
2023-04-02T17:07:01.535Z,96963.50
2023-04-02T17:09:15.580Z,96966.78
2023-04-02T17:11:24.872Z,96966.34
2023-04-02T17:13:35.005Z,96967.81
2023-04-02T17:15:40.090Z,96970.84
2023-04-02T17:17:44.721Z,96976.97
2023-04-02T17:19:50.914Z,96976.34
2023-04-02T17:21:58.742Z,96975.75
2023-04-02T17:24:07.364Z,96982.69
2023-04-02T17:26:10.648Z,96983.72
2023-04-02T17:28:18.138Z,96986.56
2023-04-02T17:30:30.755Z,96992.09
2023-04-02T17:32:35.670Z,96984.34
2023-04-02T17:34:38.442Z,96988.81
2023-04-02T17:36:47.373Z,96986.34
2023-04-02T17:39:01.903Z,96995.34
2023-04-02T17:41:14.594Z,96992.06
2023-04-02T17:43:34.206Z,96991.47
2023-04-02T17:45:46.865Z,96988.00
2023-04-02T17:47:59.012Z,97002.09
2023-04-02T17:50:22.856Z,97006.78
2023-04-02T17:52:33.431Z,97008.81
2023-04-02T17:54:47.738Z,96998.41
2023-04-02T17:57:09.908Z,97007.19
2023-04-02T17:59:39.067Z,97010.03
2023-04-02T18:01:51.162Z,97010.44
2023-04-02T18:04:05.580Z,97009.00
2023-04-02T18:06:16.006Z,97011.25
2023-04-02T18:08:27.914Z,97012.06
2023-04-02T18:10:39.250Z,97017.59
2023-04-02T18:12:55.184Z,97011.44
2023-04-02T18:15:06.519Z,97019.38
2023-04-02T18:17:18.343Z,97010.44
2023-04-02T18:19:28.228Z,97014.09
2023-04-02T18:21:37.231Z,97018.19
2023-04-02T18:23:53.600Z,97023.72
2023-04-02T18:26:05.787Z,97023.72
2023-04-02T18:28:29.812Z,97025.53
2023-04-02T18:30:37.620Z,97031.66
2023-04-02T18:33:04.205Z,97029.00
2023-04-02T18:35:16.653Z,97035.31
2023-04-02T18:37:29.706Z,97038.97
2023-04-02T18:39:44.099Z,97041.03
2023-04-02T18:41:54.482Z,97039.19
2023-04-02T18:44:10.377Z,97041.03
2023-04-02T18:46:23.632Z,97044.69
2023-04-02T18:48:39.180Z,97050.22
2023-04-02T18:50:45.950Z,97052.66
2023-04-02T18:52:50.200Z,97054.50
2023-04-02T18:54:57.389Z,97060.63
2023-04-02T18:57:02.337Z,97052.66
2023-04-02T18:59:20.751Z,97060.63
2023-04-02T19:01:28.985Z,97053.06
2023-04-02T19:03:40.768Z,97054.47
2023-04-02T19:05:49.372Z,97055.72
2023-04-02T19:08:00.209Z,97057.75
2023-04-02T19:10:15.328Z,97068.16
2023-04-02T19:12:19.972Z,97072.03
2023-04-02T19:14:23.344Z,97076.94
2023-04-02T19:16:45.490Z,97074.28
2023-04-02T19:19:00.644Z,97081.44
2023-04-02T19:21:15.099Z,97077.75
2023-04-02T19:23:35.467Z,97073.69
2023-04-02T19:25:50.917Z,97081.00
2023-04-02T19:28:07.725Z,97084.66
2023-04-02T19:30:35.228Z,97085.47
2023-04-02T19:32:45.378Z,97083.03
2023-04-02T19:34:55.148Z,97096.28
2023-04-02T19:37:06.693Z,97085.88
2023-04-02T19:39:46.725Z,97090.78
2023-04-02T19:41:53.328Z,97092.38
2023-04-02T19:43:56.822Z,97089.91
2023-04-02T19:46:00.181Z,97098.91
2023-04-02T19:48:12.383Z,97104.19
2023-04-02T19:50:16.805Z,97109.50
2023-04-02T19:52:21.060Z,97108.88
2023-04-02T19:54:24.027Z,97113.56
2023-04-02T19:56:27.740Z,97112.75
2023-04-02T19:58:32.846Z,97121.72
2023-04-02T20:00:36.007Z,97118.25
2023-04-02T20:02:38.961Z,97123.56
2023-04-02T20:04:42.402Z,97121.94
2023-04-02T20:06:47.213Z,97122.09
2023-04-02T20:08:49.994Z,97123.72
2023-04-02T20:10:52.744Z,97121.94
2023-04-02T20:12:55.579Z,97134.78
2023-04-02T20:14:58.362Z,97134.38
2023-04-02T20:17:01.382Z,97129.09
2023-04-02T20:19:04.299Z,97137.66
2023-04-02T20:21:07.952Z,97133.97
2023-04-02T20:23:12.140Z,97129.50
2023-04-02T20:25:15.101Z,97133.97
2023-04-02T20:27:17.927Z,97129.69
2023-04-02T20:29:22.293Z,97132.34
2023-04-02T20:31:25.086Z,97132.56
2023-04-02T20:33:28.074Z,97132.75
2023-04-02T20:35:34.437Z,97132.13
2023-04-02T20:37:37.396Z,97136.81
2023-04-02T20:39:41.708Z,97137.63
2023-04-02T20:41:44.558Z,97133.97
2023-04-02T20:43:50.479Z,97135.00
2023-04-02T20:45:56.768Z,97129.03
2023-04-02T20:47:59.694Z,97138.47
2023-04-02T20:50:02.563Z,97136.63
2023-04-02T20:52:05.894Z,97139.06
2023-04-02T20:54:08.690Z,97143.38
2023-04-02T20:56:14.425Z,97142.53
2023-04-02T20:58:18.597Z,97137.25
2023-04-02T21:00:22.129Z,97147.66
2023-04-02T21:02:24.902Z,97143.97
2023-04-02T21:04:29.336Z,97142.97
2023-04-02T21:06:34.588Z,97154.84
2023-04-02T21:08:37.717Z,97149.53
2023-04-02T21:10:41.321Z,97147.03
2023-04-02T21:12:45.514Z,97144.59
2023-04-02T21:14:48.609Z,97145.63
2023-04-02T21:16:51.416Z,97149.28
2023-04-02T21:18:54.916Z,97143.16
2023-04-02T21:20:59.910Z,97147.44
2023-04-02T21:23:02.957Z,97141.31
2023-04-02T21:25:06.538Z,97147.44
2023-04-02T21:27:09.272Z,97153.56
2023-04-02T21:29:13.879Z,97151.94
2023-04-02T21:31:18.241Z,97155.59
